Time;durP1;ratioP1;P1;durP2;ratioP2;P2;SDS_P1;SDS_P2;PMS_P1;PMS_P2;Temp;Humidity;BMP_temperature;BMP_pressure;BME280_temperature;BME280_humidity;BME280_pressure;Samples;Min_cycle;Max_cycle;Signal;HPM_P1;HPM_P2
2023/11/25 00:01:25;;;;;;;;;;;5.30;99.90;;;;;;8390826;28;19951;-71
2023/11/25 00:05:27;;;;;;;;;;;5.30;99.90;;;;;;8391912;28;19925;-71
2023/11/25 00:09:28;;;;;;;;;;;5.30;99.90;;;;;;8377145;28;19952;-71
2023/11/25 00:13:30;;;;;;;;;;;5.30;99.90;;;;;;8391490;28;19924;-71
2023/11/25 00:17:32;;;;;;;;;;;5.30;99.90;;;;;;8387924;28;19936;-71
2023/11/25 00:21:34;;;;;;;;;;;5.40;99.90;;;;;;8388895;28;20384;-70
2023/11/25 00:25:36;;;;;;;;;;;5.40;99.90;;;;;;8390076;28;19980;-71
2023/11/25 00:29:38;;;;;;;;;;;5.40;99.90;;;;;;8380506;28;19924;-71
2023/11/25 00:33:40;;;;;;;;;;;5.40;99.90;;;;;;8386127;28;19932;-71
2023/11/25 00:37:42;;;;;;;;;;;5.40;99.90;;;;;;8385898;28;19928;-71
2023/11/25 00:41:44;;;;;;;;;;;5.40;99.90;;;;;;8371481;28;20063;-71
2023/11/25 00:45:46;;;;;;;;;;;5.30;99.90;;;;;;8387653;28;19947;-71
2023/11/25 00:49:52;;;;;;;;;;;5.30;99.90;;;;;;8390794;28;19972;-71
2023/11/25 00:53:54;;;;;;;;;;;5.40;99.90;;;;;;8390266;28;20287;-70
2023/11/25 00:57:56;;;;;;;;;;;5.50;99.90;;;;;;8371418;28;20723;-71
2023/11/25 01:01:57;;;;;;;;;;;5.50;99.90;;;;;;8368627;28;19936;-71
2023/11/25 01:06:06;;;;;;;;;;;5.60;99.90;;;;;;8384780;28;19971;-71
2023/11/25 01:10:09;;;;;;;;;;;5.60;99.90;;;;;;8378737;28;19924;-71
2023/11/25 01:14:12;;;;;;;;;;;5.60;99.90;;;;;;8394248;28;19967;-71
2023/11/25 01:18:13;;;;;;;;;;;5.50;99.90;;;;;;8379157;28;20226;-71
2023/11/25 01:22:15;;;;;;;;;;;5.40;99.90;;;;;;8389078;28;19990;-71
2023/11/25 01:26:17;;;;;;;;;;;5.40;99.90;;;;;;8363620;28;19960;-71
2023/11/25 01:30:19;;;;;;;;;;;5.30;99.90;;;;;;8381120;28;19931;-71
2023/11/25 01:34:21;;;;;;;;;;;5.30;99.90;;;;;;8387552;28;20508;-71
2023/11/25 01:38:23;;;;;;;;;;;5.30;99.90;;;;;;8368230;28;19997;-71
2023/11/25 01:42:24;;;;;;;;;;;5.30;99.90;;;;;;8376735;28;19968;-71
2023/11/25 01:46:36;;;;;;;;;;;5.30;99.90;;;;;;8386767;28;19935;-71
2023/11/25 01:50:39;;;;;;;;;;;5.20;99.90;;;;;;8378334;28;19935;-72
2023/11/25 01:54:41;;;;;;;;;;;5.10;99.90;;;;;;8390051;28;19925;-72
2023/11/25 01:58:42;;;;;;;;;;;5.00;99.90;;;;;;8388562;28;20350;-71
2023/11/25 02:02:44;;;;;;;;;;;4.90;99.90;;;;;;8388090;28;19967;-72
2023/11/25 02:06:46;;;;;;;;;;;4.80;99.90;;;;;;8387914;28;20016;-71
2023/11/25 02:10:48;;;;;;;;;;;4.70;99.90;;;;;;8374540;28;19925;-71
2023/11/25 02:14:49;;;;;;;;;;;4.60;99.90;;;;;;8378347;28;19933;-71
2023/11/25 02:18:51;;;;;;;;;;;4.60;99.90;;;;;;8380798;28;19955;-71
2023/11/25 02:22:57;;;;;;;;;;;4.50;99.90;;;;;;8386085;28;19989;-70
2023/11/25 02:26:59;;;;;;;;;;;4.50;99.90;;;;;;8381020;28;19932;-70
2023/11/25 02:31:02;;;;;;;;;;;4.50;99.90;;;;;;8381702;28;19926;-70
2023/11/25 02:35:05;;;;;;;;;;;4.40;99.90;;;;;;8390661;28;19931;-70
2023/11/25 02:39:07;;;;;;;;;;;4.40;99.90;;;;;;8359408;28;19924;-71
2023/11/25 02:43:08;;;;;;;;;;;4.30;99.90;;;;;;8378146;28;19925;-71
2023/11/25 02:47:10;;;;;;;;;;;4.30;99.90;;;;;;8385728;28;19932;-71
2023/11/25 02:51:12;;;;;;;;;;;4.30;99.90;;;;;;8377826;28;20328;-71
2023/11/25 02:55:14;;;;;;;;;;;4.30;99.90;;;;;;8378241;28;19924;-71
2023/11/25 02:59:17;;;;;;;;;;;4.30;99.90;;;;;;8388523;28;19932;-71
2023/11/25 03:03:22;;;;;;;;;;;4.40;99.90;;;;;;8371899;28;20403;-70
2023/11/25 03:07:24;;;;;;;;;;;4.40;99.90;;;;;;8390613;28;19924;-70
2023/11/25 03:11:28;;;;;;;;;;;4.40;99.90;;;;;;8370117;28;19932;-70
2023/11/25 03:15:31;;;;;;;;;;;4.40;99.90;;;;;;8382211;28;19925;-70
2023/11/25 03:19:33;;;;;;;;;;;4.40;99.90;;;;;;8360333;28;19940;-70
2023/11/25 03:23:36;;;;;;;;;;;4.40;99.90;;;;;;8374541;28;20313;-71
2023/11/25 03:27:37;;;;;;;;;;;4.40;99.90;;;;;;8393145;28;19973;-71
2023/11/25 03:31:42;;;;;;;;;;;4.40;99.90;;;;;;8378881;28;19978;-70
2023/11/25 03:35:44;;;;;;;;;;;4.40;99.90;;;;;;8378085;28;19936;-71
2023/11/25 03:39:46;;;;;;;;;;;4.40;99.90;;;;;;8385565;28;19971;-70
2023/11/25 03:43:47;;;;;;;;;;;4.40;99.90;;;;;;8376639;28;20620;-71
2023/11/25 03:47:51;;;;;;;;;;;4.40;99.90;;;;;;8387188;28;20288;-70
2023/11/25 03:51:54;;;;;;;;;;;4.30;99.90;;;;;;8379858;28;20453;-70
2023/11/25 03:55:59;;;;;;;;;;;4.30;99.90;;;;;;8389293;28;19951;-71
2023/11/25 04:00:01;;;;;;;;;;;4.30;99.90;;;;;;8382378;28;20367;-70
2023/11/25 04:04:03;;;;;;;;;;;4.30;99.90;;;;;;8366363;28;20397;-71
2023/11/25 04:08:05;;;;;;;;;;;4.30;99.90;;;;;;8383251;28;19932;-70
2023/11/25 04:12:07;;;;;;;;;;;4.40;99.90;;;;;;8385406;28;19924;-71
2023/11/25 04:16:09;;;;;;;;;;;4.50;99.90;;;;;;8345214;28;20698;-71
2023/11/25 04:20:13;;;;;;;;;;;4.60;99.90;;;;;;8373032;28;19985;-71
2023/11/25 04:24:17;;;;;;;;;;;4.60;99.90;;;;;;8351994;28;20039;-71
2023/11/25 04:28:19;;;;;;;;;;;4.70;99.90;;;;;;8370158;28;19972;-71
2023/11/25 04:32:20;;;;;;;;;;;4.80;99.90;;;;;;8361976;28;19929;-71
2023/11/25 04:36:24;;;;;;;;;;;4.90;99.90;;;;;;8373998;28;20324;-71
2023/11/25 04:40:25;;;;;;;;;;;5.00;99.90;;;;;;8374289;28;20234;-71
2023/11/25 04:44:27;;;;;;;;;;;5.00;99.90;;;;;;8387173;28;19938;-71
2023/11/25 04:48:29;;;;;;;;;;;5.00;99.90;;;;;;8387142;28;19924;-70
2023/11/25 04:52:31;;;;;;;;;;;5.00;99.90;;;;;;8395705;28;20345;-71
2023/11/25 04:56:34;;;;;;;;;;;5.00;99.90;;;;;;8388407;28;19963;-71
2023/11/25 05:00:36;;;;;;;;;;;5.00;99.90;;;;;;8397875;28;19928;-71
2023/11/25 05:04:37;;;;;;;;;;;5.10;99.90;;;;;;8390044;28;19928;-71
2023/11/25 05:08:39;;;;;;;;;;;5.10;99.90;;;;;;8380141;28;19928;-71
2023/11/25 05:12:42;;;;;;;;;;;5.10;99.90;;;;;;8363658;28;19932;-71
2023/11/25 05:16:44;;;;;;;;;;;5.10;99.90;;;;;;8378980;28;19932;-71
2023/11/25 05:20:46;;;;;;;;;;;5.10;99.90;;;;;;8381084;28;19931;-71
2023/11/25 05:24:48;;;;;;;;;;;5.00;99.90;;;;;;8376493;28;19972;-71
2023/11/25 05:28:49;;;;;;;;;;;5.00;99.90;;;;;;8383090;28;20521;-70
2023/11/25 05:32:51;;;;;;;;;;;5.00;99.90;;;;;;8387107;28;20372;-71
2023/11/25 05:36:53;;;;;;;;;;;5.00;99.90;;;;;;8353313;28;19986;-72
2023/11/25 05:40:55;;;;;;;;;;;4.90;99.90;;;;;;8383684;28;19970;-71
2023/11/25 05:44:56;;;;;;;;;;;4.80;99.90;;;;;;8369057;28;19929;-71
2023/11/25 05:48:58;;;;;;;;;;;4.80;99.90;;;;;;8384431;28;19924;-70
2023/11/25 05:53:00;;;;;;;;;;;4.80;99.90;;;;;;8394495;28;19931;-71
2023/11/25 05:57:01;;;;;;;;;;;4.70;99.90;;;;;;8366933;28;19928;-71
2023/11/25 06:01:03;;;;;;;;;;;4.70;99.90;;;;;;8385880;28;19928;-71
2023/11/25 06:05:06;;;;;;;;;;;4.70;99.90;;;;;;8357245;28;19929;-71
2023/11/25 06:09:11;;;;;;;;;;;4.60;99.90;;;;;;8376624;28;19977;-71
2023/11/25 06:13:13;;;;;;;;;;;4.60;99.90;;;;;;8392186;28;19924;-71
2023/11/25 06:17:15;;;;;;;;;;;4.60;99.90;;;;;;8359881;28;20333;-72
2023/11/25 06:21:16;;;;;;;;;;;4.60;99.90;;;;;;8388475;28;20391;-71
2023/11/25 06:25:18;;;;;;;;;;;4.60;99.90;;;;;;8408785;28;19932;-71
2023/11/25 06:29:20;;;;;;;;;;;4.50;99.90;;;;;;8377873;28;20023;-71
2023/11/25 06:33:24;;;;;;;;;;;4.50;99.90;;;;;;8387342;28;20264;-71
2023/11/25 06:37:26;;;;;;;;;;;4.50;99.90;;;;;;8379967;28;20093;-72
2023/11/25 06:41:27;;;;;;;;;;;4.40;99.90;;;;;;8379126;28;19931;-71
2023/11/25 06:45:29;;;;;;;;;;;4.50;99.90;;;;;;8392724;28;20382;-71
2023/11/25 06:49:31;;;;;;;;;;;4.50;99.90;;;;;;8372740;28;19935;-71
2023/11/25 06:53:33;;;;;;;;;;;4.50;99.90;;;;;;8392692;28;19924;-71
2023/11/25 06:57:35;;;;;;;;;;;4.50;99.90;;;;;;8370991;28;20362;-71
2023/11/25 07:01:37;;;;;;;;;;;4.50;99.90;;;;;;8379804;28;19928;-71
2023/11/25 07:05:38;;;;;;;;;;;4.50;99.90;;;;;;8408117;28;19928;-71
2023/11/25 07:09:40;;;;;;;;;;;4.50;99.90;;;;;;8364107;28;19928;-71
2023/11/25 07:13:42;;;;;;;;;;;4.50;99.90;;;;;;8384473;28;20355;-71
2023/11/25 07:17:44;;;;;;;;;;;4.60;99.90;;;;;;8374958;28;19928;-71
2023/11/25 07:21:46;;;;;;;;;;;4.60;99.90;;;;;;8374255;28;19936;-71
2023/11/25 07:25:48;;;;;;;;;;;4.70;99.90;;;;;;8398812;28;19925;-71
2023/11/25 07:29:49;;;;;;;;;;;4.70;99.90;;;;;;8397151;28;20318;-71
2023/11/25 07:33:51;;;;;;;;;;;4.80;99.90;;;;;;8382182;28;20303;-70
2023/11/25 07:37:53;;;;;;;;;;;4.80;99.90;;;;;;8395140;28;20276;-71
2023/11/25 07:41:57;;;;;;;;;;;4.80;99.90;;;;;;8395376;28;19955;-71
2023/11/25 07:45:59;;;;;;;;;;;4.80;99.90;;;;;;8401131;28;19924;-71
2023/11/25 07:50:01;;;;;;;;;;;4.70;99.90;;;;;;8370083;28;19932;-71
2023/11/25 07:54:03;;;;;;;;;;;4.80;99.90;;;;;;8394299;28;19947;-71
2023/11/25 07:58:05;;;;;;;;;;;4.80;99.90;;;;;;8384458;28;19924;-71
2023/11/25 08:02:08;;;;;;;;;;;4.90;99.90;;;;;;8383120;28;20319;-71
2023/11/25 08:06:10;;;;;;;;;;;5.00;99.90;;;;;;8382617;28;19975;-71
2023/11/25 08:10:12;;;;;;;;;;;5.00;99.90;;;;;;8388145;28;19924;-71
2023/11/25 08:14:13;;;;;;;;;;;5.10;99.90;;;;;;8391715;28;20364;-70
2023/11/25 08:18:16;;;;;;;;;;;5.10;99.90;;;;;;8355836;28;20007;-70
2023/11/25 08:22:18;;;;;;;;;;;5.10;99.90;;;;;;8379622;28;19932;-71
2023/11/25 08:26:21;;;;;;;;;;;5.00;99.90;;;;;;8395362;28;19924;-71
2023/11/25 08:30:23;;;;;;;;;;;5.00;99.90;;;;;;8363772;28;19925;-71
2023/11/25 08:34:24;;;;;;;;;;;5.00;99.90;;;;;;8393304;28;19975;-71
2023/11/25 08:38:26;;;;;;;;;;;5.00;99.90;;;;;;8396633;28;19975;-71
2023/11/25 08:42:30;;;;;;;;;;;5.10;99.90;;;;;;8392569;28;19932;-71
2023/11/25 08:46:35;;;;;;;;;;;5.20;99.90;;;;;;8392887;28;19931;-70
2023/11/25 08:50:37;;;;;;;;;;;5.40;99.90;;;;;;8387981;28;19928;-71
2023/11/25 08:54:39;;;;;;;;;;;5.50;99.90;;;;;;8395299;28;20062;-71
2023/11/25 08:58:40;;;;;;;;;;;5.60;99.90;;;;;;8392033;28;19932;-71
2023/11/25 09:02:43;;;;;;;;;;;5.70;99.90;;;;;;8380219;28;19978;-71
2023/11/25 09:06:46;;;;;;;;;;;5.80;99.90;;;;;;8375769;28;20295;-71
2023/11/25 09:10:49;;;;;;;;;;;5.80;99.90;;;;;;8389993;28;19963;-71
2023/11/25 09:14:51;;;;;;;;;;;5.80;99.90;;;;;;8378945;28;20519;-72
2023/11/25 09:18:53;;;;;;;;;;;6.00;99.90;;;;;;8387476;28;20618;-71
2023/11/25 09:22:55;;;;;;;;;;;6.20;99.90;;;;;;8382301;28;19935;-71
2023/11/25 09:26:57;;;;;;;;;;;6.50;99.90;;;;;;8386226;28;19939;-72
2023/11/25 09:30:59;;;;;;;;;;;6.60;99.90;;;;;;8382178;28;20371;-71
2023/11/25 09:35:00;;;;;;;;;;;6.60;99.90;;;;;;8383978;28;19925;-70
2023/11/25 09:39:03;;;;;;;;;;;6.70;99.90;;;;;;8394951;28;19924;-71
2023/11/25 09:43:06;;;;;;;;;;;6.80;99.90;;;;;;8399531;28;19936;-71
2023/11/25 09:47:08;;;;;;;;;;;6.90;99.90;;;;;;8395961;28;19936;-71
2023/11/25 09:51:13;;;;;;;;;;;7.00;99.90;;;;;;8390101;28;19932;-71
2023/11/25 09:55:17;;;;;;;;;;;7.10;99.90;;;;;;8370171;28;19935;-71
2023/11/25 09:59:19;;;;;;;;;;;7.00;99.90;;;;;;8387502;28;19924;-70
2023/11/25 10:03:21;;;;;;;;;;;6.90;99.90;;;;;;8392623;28;19977;-71
2023/11/25 10:07:23;;;;;;;;;;;7.00;99.90;;;;;;8369574;28;20297;-70
2023/11/25 10:11:25;;;;;;;;;;;7.20;99.90;;;;;;8400559;28;20049;-71
2023/11/25 10:15:26;;;;;;;;;;;7.30;99.90;;;;;;8389175;28;19928;-70
2023/11/25 10:19:28;;;;;;;;;;;7.40;99.90;;;;;;8387477;28;19964;-71
2023/11/25 10:23:30;;;;;;;;;;;7.40;99.90;;;;;;8384132;28;19936;-71
2023/11/25 10:27:31;;;;;;;;;;;7.50;99.90;;;;;;8388656;28;19935;-71
2023/11/25 10:31:33;;;;;;;;;;;7.60;99.90;;;;;;8396948;28;19928;-70
2023/11/25 10:35:35;;;;;;;;;;;7.70;99.90;;;;;;8387805;28;19929;-70
2023/11/25 10:39:36;;;;;;;;;;;7.80;99.90;;;;;;8402256;28;19932;-70
2023/11/25 10:43:41;;;;;;;;;;;7.90;99.90;;;;;;8370642;28;20312;-70
2023/11/25 10:47:43;;;;;;;;;;;8.30;99.90;;;;;;8388949;28;19975;-71
2023/11/25 10:51:45;;;;;;;;;;;8.50;99.90;;;;;;8382295;28;20277;-71
2023/11/25 10:55:47;;;;;;;;;;;9.10;99.90;;;;;;8380810;28;19932;-71
2023/11/25 10:59:55;;;;;;;;;;;9.70;99.90;;;;;;8386681;28;19960;-71
2023/11/25 11:04:05;;;;;;;;;;;10.60;99.90;;;;;;8381547;28;20373;-72
2023/11/25 11:08:07;;;;;;;;;;;10.70;99.90;;;;;;8390471;28;19932;-71
2023/11/25 11:12:12;;;;;;;;;;;10.00;99.90;;;;;;8389457;28;19932;-71
2023/11/25 11:16:21;;;;;;;;;;;9.50;99.90;;;;;;8366597;28;20367;-71
2023/11/25 11:20:27;;;;;;;;;;;9.20;99.90;;;;;;8369189;28;19929;-71
2023/11/25 11:24:32;;;;;;;;;;;9.20;99.90;;;;;;8373308;28;19925;-71
2023/11/25 11:28:38;;;;;;;;;;;9.10;99.90;;;;;;8365738;28;19924;-71
2023/11/25 11:32:39;;;;;;;;;;;8.90;99.90;;;;;;8361131;28;19940;-71
2023/11/25 11:36:44;;;;;;;;;;;8.80;99.90;;;;;;8350434;28;20384;-71
2023/11/25 11:40:46;;;;;;;;;;;9.20;99.90;;;;;;8363683;28;20311;-71
2023/11/25 11:44:55;;;;;;;;;;;9.80;99.90;;;;;;8367092;28;19932;-71
2023/11/25 11:48:58;;;;;;;;;;;10.10;99.90;;;;;;8367345;28;19925;-72
2023/11/25 11:53:00;;;;;;;;;;;10.00;99.90;;;;;;8356345;28;19924;-71
2023/11/25 11:57:03;;;;;;;;;;;9.80;99.90;;;;;;8369183;28;20395;-71
2023/11/25 12:01:05;;;;;;;;;;;9.90;99.90;;;;;;8372557;28;19955;-72
2023/11/25 12:05:07;;;;;;;;;;;9.70;99.90;;;;;;8384857;28;20277;-71
2023/11/25 12:09:11;;;;;;;;;;;9.60;99.90;;;;;;8382274;28;19963;-71
2023/11/25 12:13:32;;;;;;;;;;;10.10;99.90;;;;;;8378264;28;19925;-70
2023/11/25 12:17:34;;;;;;;;;;;10.80;99.90;;;;;;8376236;28;20419;-71
2023/11/25 12:21:36;;;;;;;;;;;11.10;99.90;;;;;;8352595;28;20407;-71
2023/11/25 12:25:39;;;;;;;;;;;10.90;99.90;;;;;;8358231;28;19932;-71
2023/11/25 12:29:41;;;;;;;;;;;11.00;99.90;;;;;;8365132;28;19924;-70
2023/11/25 12:33:43;;;;;;;;;;;11.40;99.90;;;;;;8362607;28;19933;-70
2023/11/25 12:37:46;;;;;;;;;;;11.70;99.90;;;;;;8360243;28;19928;-70
2023/11/25 12:41:53;;;;;;;;;;;11.50;99.90;;;;;;8360380;28;19929;-70
2023/11/25 12:45:55;;;;;;;;;;;11.30;99.90;;;;;;8358737;28;20002;-71
2023/11/25 12:50:04;;;;;;;;;;;10.90;99.90;;;;;;8371447;28;19936;-71
2023/11/25 12:54:09;;;;;;;;;;;10.50;99.90;;;;;;8369975;28;19929;-71
2023/11/25 12:58:12;;;;;;;;;;;10.10;99.90;;;;;;8368463;28;19932;-70
2023/11/25 13:02:13;;;;;;;;;;;9.80;99.90;;;;;;8369348;28;19925;-71
2023/11/25 13:06:15;;;;;;;;;;;9.50;99.90;;;;;;8366326;28;19924;-71
2023/11/25 13:10:17;;;;;;;;;;;9.50;99.90;;;;;;8371558;28;19935;-70
2023/11/25 13:14:19;;;;;;;;;;;9.70;99.90;;;;;;8369080;28;20495;-70
2023/11/25 13:18:21;;;;;;;;;;;9.90;99.90;;;;;;8383152;28;20308;-71
2023/11/25 13:22:23;;;;;;;;;;;10.10;99.90;;;;;;8367498;28;19967;-71
2023/11/25 13:26:27;;;;;;;;;;;10.00;99.90;;;;;;8379875;28;19933;-72
2023/11/25 13:30:29;;;;;;;;;;;9.80;99.90;;;;;;8369401;28;19925;-70
2023/11/25 13:34:31;;;;;;;;;;;9.70;99.90;;;;;;8385122;28;19980;-71
2023/11/25 13:38:33;;;;;;;;;;;9.60;99.90;;;;;;8385798;28;19985;-71
2023/11/25 13:42:35;;;;;;;;;;;9.60;99.90;;;;;;8387498;28;19931;-71
2023/11/25 13:46:36;;;;;;;;;;;9.70;99.90;;;;;;8383039;28;19924;-71
2023/11/25 13:50:38;;;;;;;;;;;9.80;99.90;;;;;;8362189;28;20027;-71
2023/11/25 13:54:40;;;;;;;;;;;9.90;99.90;;;;;;8381529;28;19929;-71
2023/11/25 13:58:41;;;;;;;;;;;9.90;99.90;;;;;;8385359;28;19928;-71
2023/11/25 14:02:43;;;;;;;;;;;9.70;99.90;;;;;;8382841;28;19986;-71
2023/11/25 14:06:45;;;;;;;;;;;9.50;99.90;;;;;;8381200;28;19924;-71
2023/11/25 14:10:47;;;;;;;;;;;9.20;99.90;;;;;;8380832;28;20403;-71
2023/11/25 14:14:49;;;;;;;;;;;9.00;99.90;;;;;;8365349;28;19924;-71
2023/11/25 14:18:52;;;;;;;;;;;8.80;99.90;;;;;;8383922;28;19924;-71
2023/11/25 14:22:56;;;;;;;;;;;8.70;99.90;;;;;;8386162;28;19931;-71
2023/11/25 14:27:00;;;;;;;;;;;8.70;99.90;;;;;;8386882;28;19978;-71
2023/11/25 14:31:02;;;;;;;;;;;8.80;99.90;;;;;;8383667;28;20388;-71
2023/11/25 14:35:07;;;;;;;;;;;8.80;99.90;;;;;;8363002;28;19929;-70
2023/11/25 14:39:08;;;;;;;;;;;8.80;99.90;;;;;;8382377;28;20684;-71
2023/11/25 14:43:10;;;;;;;;;;;8.80;99.90;;;;;;8382855;28;19947;-71
2023/11/25 14:47:12;;;;;;;;;;;8.70;99.90;;;;;;8364776;28;19982;-71
2023/11/25 14:51:14;;;;;;;;;;;8.70;99.90;;;;;;8385180;28;19936;-71
2023/11/25 14:55:16;;;;;;;;;;;8.50;99.90;;;;;;8369118;28;19925;-70
2023/11/25 14:59:18;;;;;;;;;;;8.40;99.90;;;;;;8382685;28;19977;-72
2023/11/25 15:03:19;;;;;;;;;;;8.30;99.90;;;;;;8380206;28;19963;-71
2023/11/25 15:07:21;;;;;;;;;;;8.30;99.90;;;;;;8385148;28;19970;-71
2023/11/25 15:11:23;;;;;;;;;;;8.20;99.90;;;;;;8387505;28;20387;-71
2023/11/25 15:15:25;;;;;;;;;;;8.20;99.90;;;;;;8381468;28;19924;-71
2023/11/25 15:19:28;;;;;;;;;;;8.20;99.90;;;;;;8365299;28;19939;-71
2023/11/25 15:23:29;;;;;;;;;;;8.10;99.90;;;;;;8384953;28;19938;-71
2023/11/25 15:27:31;;;;;;;;;;;8.00;99.90;;;;;;8383637;28;20440;-70
2023/11/25 15:31:33;;;;;;;;;;;7.90;99.90;;;;;;8387278;28;20300;-71
2023/11/25 15:35:35;;;;;;;;;;;7.90;99.90;;;;;;8386088;28;19999;-71
2023/11/25 15:39:37;;;;;;;;;;;7.90;99.90;;;;;;8366831;28;19928;-70
2023/11/25 15:43:41;;;;;;;;;;;7.90;99.90;;;;;;8382436;28;19940;-71
2023/11/25 15:47:43;;;;;;;;;;;7.80;99.90;;;;;;8375347;28;19928;-71
2023/11/25 15:51:45;;;;;;;;;;;7.80;99.90;;;;;;8382889;28;19935;-71
2023/11/25 15:55:47;;;;;;;;;;;7.70;99.90;;;;;;8385953;28;19932;-71
2023/11/25 15:59:49;;;;;;;;;;;7.70;99.90;;;;;;8347603;28;19931;-71
2023/11/25 16:03:51;;;;;;;;;;;7.70;99.90;;;;;;8369618;28;19925;-70
2023/11/25 16:07:52;;;;;;;;;;;7.70;99.90;;;;;;8366744;28;19925;-71
2023/11/25 16:11:54;;;;;;;;;;;7.70;99.90;;;;;;8363592;28;19932;-72
2023/11/25 16:15:56;;;;;;;;;;;7.60;99.90;;;;;;8348192;28;19928;-71
2023/11/25 16:19:59;;;;;;;;;;;7.60;99.90;;;;;;8362488;28;20458;-71
2023/11/25 16:24:01;;;;;;;;;;;7.60;99.90;;;;;;8367906;28;19968;-70
2023/11/25 16:28:03;;;;;;;;;;;7.50;99.90;;;;;;8371460;28;19978;-71
2023/11/25 16:32:05;;;;;;;;;;;7.50;99.90;;;;;;8363241;28;19959;-71
2023/11/25 16:36:07;;;;;;;;;;;7.40;99.90;;;;;;8384251;28;19932;-71
2023/11/25 16:40:09;;;;;;;;;;;7.40;99.90;;;;;;8369298;28;20376;-71
2023/11/25 16:44:11;;;;;;;;;;;7.40;99.90;;;;;;8357757;28;20584;-71
2023/11/25 16:48:13;;;;;;;;;;;7.30;99.90;;;;;;8353966;28;19978;-71
2023/11/25 16:52:15;;;;;;;;;;;7.30;99.90;;;;;;8353539;28;19975;-71
2023/11/25 16:56:17;;;;;;;;;;;7.20;99.90;;;;;;8338315;28;20327;-71
2023/11/25 17:00:19;;;;;;;;;;;7.20;99.90;;;;;;8355120;28;19932;-71
2023/11/25 17:04:21;;;;;;;;;;;7.10;99.90;;;;;;8353484;28;19939;-71
2023/11/25 17:08:22;;;;;;;;;;;7.10;99.90;;;;;;8337545;28;20055;-71
2023/11/25 17:12:24;;;;;;;;;;;7.10;99.90;;;;;;8353979;28;20074;-71
2023/11/25 17:16:26;;;;;;;;;;;7.10;99.90;;;;;;8356475;28;19956;-71
2023/11/25 17:20:30;;;;;;;;;;;7.10;99.90;;;;;;8345875;28;19983;-71
2023/11/25 17:24:34;;;;;;;;;;;7.00;99.90;;;;;;8355962;28;19967;-71
2023/11/25 17:28:37;;;;;;;;;;;7.00;99.90;;;;;;8357522;28;19947;-71
2023/11/25 17:32:39;;;;;;;;;;;7.00;99.90;;;;;;8354562;28;19960;-71
2023/11/25 17:36:40;;;;;;;;;;;6.90;99.90;;;;;;8358825;28;19932;-71
2023/11/25 17:40:42;;;;;;;;;;;6.90;99.90;;;;;;8343227;28;19960;-71
2023/11/25 17:44:44;;;;;;;;;;;6.80;99.90;;;;;;8332620;28;19933;-71
2023/11/25 17:48:46;;;;;;;;;;;6.80;99.90;;;;;;8349834;28;21375;-71
2023/11/25 17:52:49;;;;;;;;;;;6.80;99.90;;;;;;8345818;28;19928;-71
2023/11/25 17:56:54;;;;;;;;;;;6.70;99.90;;;;;;8344178;28;20319;-71
2023/11/25 18:00:57;;;;;;;;;;;6.70;99.90;;;;;;8358236;28;19932;-71
2023/11/25 18:04:59;;;;;;;;;;;6.60;99.90;;;;;;8353948;28;20388;-71
2023/11/25 18:09:01;;;;;;;;;;;6.60;99.90;;;;;;8360048;28;20011;-70
2023/11/25 18:13:03;;;;;;;;;;;6.50;99.90;;;;;;8351104;28;20306;-71
2023/11/25 18:17:04;;;;;;;;;;;6.50;99.90;;;;;;8356937;28;19940;-71
2023/11/25 18:21:06;;;;;;;;;;;6.40;99.90;;;;;;8353188;28;19994;-70
2023/11/25 18:25:10;;;;;;;;;;;6.30;99.90;;;;;;8353239;28;19998;-72
2023/11/25 18:29:11;;;;;;;;;;;6.20;99.90;;;;;;8353966;28;19986;-70
2023/11/25 18:33:13;;;;;;;;;;;6.10;99.90;;;;;;8354015;28;20125;-71
2023/11/25 18:37:15;;;;;;;;;;;6.00;99.90;;;;;;8353536;28;20367;-70
2023/11/25 18:41:17;;;;;;;;;;;5.90;99.90;;;;;;8353405;28;19932;-71
2023/11/25 18:45:19;;;;;;;;;;;5.90;99.90;;;;;;8350778;28;20331;-71
2023/11/25 18:49:20;;;;;;;;;;;5.80;99.90;;;;;;8352387;28;19928;-71
2023/11/25 18:53:22;;;;;;;;;;;5.70;99.90;;;;;;8351950;28;20360;-70
2023/11/25 18:57:24;;;;;;;;;;;5.60;99.90;;;;;;8352228;28;20320;-71
2023/11/25 19:01:27;;;;;;;;;;;5.50;99.90;;;;;;8353213;28;19925;-71
2023/11/25 19:05:29;;;;;;;;;;;5.40;99.90;;;;;;8351518;28;20520;-71
2023/11/25 19:09:30;;;;;;;;;;;5.30;99.90;;;;;;8353483;28;20276;-71
2023/11/25 19:13:32;;;;;;;;;;;5.20;99.90;;;;;;8355116;28;19929;-71
2023/11/25 19:17:37;;;;;;;;;;;5.10;99.90;;;;;;8352252;28;19948;-70
2023/11/25 19:21:39;;;;;;;;;;;5.10;99.90;;;;;;8352178;28;19925;-70
2023/11/25 19:25:41;;;;;;;;;;;5.00;99.90;;;;;;8338258;28;19932;-71
2023/11/25 19:29:43;;;;;;;;;;;4.90;99.90;;;;;;8348860;28;20347;-71
2023/11/25 19:33:45;;;;;;;;;;;4.80;99.90;;;;;;8349914;28;20356;-71
2023/11/25 19:37:48;;;;;;;;;;;4.70;99.90;;;;;;8353058;28;19932;-71
2023/11/25 19:41:50;;;;;;;;;;;4.60;99.90;;;;;;8353123;28;20273;-71
2023/11/25 19:45:51;;;;;;;;;;;4.50;99.90;;;;;;8353377;28;20296;-71
2023/11/25 19:49:53;;;;;;;;;;;4.50;99.90;;;;;;8344592;28;20054;-70
2023/11/25 19:53:55;;;;;;;;;;;4.40;99.90;;;;;;8352275;28;19925;-71
2023/11/25 19:57:56;;;;;;;;;;;4.40;99.90;;;;;;8354725;28;19979;-70
2023/11/25 20:01:58;;;;;;;;;;;4.30;99.90;;;;;;8357194;28;19924;-71
2023/11/25 20:06:00;;;;;;;;;;;4.30;99.90;;;;;;8358246;28;20400;-71
2023/11/25 20:10:02;;;;;;;;;;;4.30;99.90;;;;;;8355227;28;20284;-70
2023/11/25 20:14:04;;;;;;;;;;;4.30;99.90;;;;;;8371303;28;19929;-71
2023/11/25 20:18:06;;;;;;;;;;;4.30;99.90;;;;;;8355473;28;19928;-71
2023/11/25 20:22:08;;;;;;;;;;;4.30;99.90;;;;;;8353828;28;20109;-71
2023/11/25 20:26:10;;;;;;;;;;;4.20;99.90;;;;;;8356837;28;19971;-71
2023/11/25 20:30:12;;;;;;;;;;;4.10;99.90;;;;;;8339595;28;19978;-71
2023/11/25 20:34:14;;;;;;;;;;;4.10;99.90;;;;;;8359437;28;20284;-71
2023/11/25 20:38:15;;;;;;;;;;;4.00;99.90;;;;;;8358532;28;19925;-72
2023/11/25 20:42:17;;;;;;;;;;;4.00;99.90;;;;;;8371162;28;19976;-71
2023/11/25 20:46:19;;;;;;;;;;;4.00;99.90;;;;;;8360462;28;19932;-71
2023/11/25 20:50:23;;;;;;;;;;;3.90;99.90;;;;;;8355309;28;19925;-71
2023/11/25 20:54:25;;;;;;;;;;;3.90;99.90;;;;;;8357343;28;19989;-71
2023/11/25 20:58:26;;;;;;;;;;;3.80;99.90;;;;;;8356391;28;19936;-71
2023/11/25 21:02:31;;;;;;;;;;;3.70;99.90;;;;;;8354377;28;19936;-71
2023/11/25 21:06:34;;;;;;;;;;;3.70;99.90;;;;;;8356389;28;20019;-72
2023/11/25 21:10:35;;;;;;;;;;;3.60;99.90;;;;;;8351367;28;19983;-71
2023/11/25 21:14:37;;;;;;;;;;;3.60;99.90;;;;;;8357899;28;24547;-71
2023/11/25 21:18:39;;;;;;;;;;;3.50;99.90;;;;;;8359135;28;19971;-71
2023/11/25 21:22:40;;;;;;;;;;;3.50;99.90;;;;;;8353228;28;20308;-72
2023/11/25 21:26:42;;;;;;;;;;;3.40;99.90;;;;;;8357263;28;20020;-71
2023/11/25 21:30:46;;;;;;;;;;;3.40;99.90;;;;;;8355791;28;19924;-71
2023/11/25 21:34:48;;;;;;;;;;;3.30;99.90;;;;;;8359608;28;19979;-71
2023/11/25 21:38:50;;;;;;;;;;;3.30;99.90;;;;;;8357416;28;19933;-71
2023/11/25 21:42:52;;;;;;;;;;;3.20;99.90;;;;;;8352774;28;19997;-71
2023/11/25 21:46:54;;;;;;;;;;;3.10;99.90;;;;;;8360016;28;19929;-72
2023/11/25 21:50:56;;;;;;;;;;;3.10;99.90;;;;;;8355364;28;19925;-71
2023/11/25 21:54:57;;;;;;;;;;;3.00;99.90;;;;;;8359752;28;19947;-71
2023/11/25 21:58:59;;;;;;;;;;;3.00;99.90;;;;;;8359822;28;20247;-71
2023/11/25 22:03:01;;;;;;;;;;;2.90;99.90;;;;;;8372869;28;19986;-71
2023/11/25 22:07:03;;;;;;;;;;;2.90;99.90;;;;;;8397450;28;19925;-72
2023/11/25 22:11:06;;;;;;;;;;;2.80;99.90;;;;;;8389071;28;19955;-71
2023/11/25 22:15:08;;;;;;;;;;;2.70;99.90;;;;;;8382188;28;19924;-72
2023/11/25 22:19:09;;;;;;;;;;;2.60;99.90;;;;;;8371876;28;19924;-71
2023/11/25 22:23:13;;;;;;;;;;;2.50;99.90;;;;;;8368002;28;19929;-71
2023/11/25 22:27:30;;;;;;;;;;;2.50;99.90;;;;;;8368988;28;20322;-72
2023/11/25 22:31:31;;;;;;;;;;;2.40;99.90;;;;;;8384904;28;19931;-72
2023/11/25 22:35:33;;;;;;;;;;;2.40;99.90;;;;;;8377844;28;19924;-72
2023/11/25 22:39:47;;;;;;;;;;;2.40;99.90;;;;;;8375470;28;20126;-72
2023/11/25 22:43:51;;;;;;;;;;;2.40;99.90;;;;;;8392873;28;19985;-72
2023/11/25 22:47:52;;;;;;;;;;;2.30;99.90;;;;;;8369564;28;19932;-71
2023/11/25 22:51:54;;;;;;;;;;;2.30;99.90;;;;;;8382830;28;19935;-71
2023/11/25 22:55:56;;;;;;;;;;;2.30;99.90;;;;;;8386090;28;19932;-71
2023/11/25 23:00:01;;;;;;;;;;;2.20;99.90;;;;;;8391936;28;19925;-71
2023/11/25 23:04:03;;;;;;;;;;;2.20;99.90;;;;;;8384665;28;19925;-71
2023/11/25 23:08:04;;;;;;;;;;;2.20;99.90;;;;;;8389010;28;20264;-72
2023/11/25 23:12:07;;;;;;;;;;;2.20;99.90;;;;;;8378712;28;19925;-72
2023/11/25 23:16:09;;;;;;;;;;;2.10;99.90;;;;;;8384234;28;20405;-71
2023/11/25 23:20:11;;;;;;;;;;;2.10;99.90;;;;;;8374518;28;20306;-71
2023/11/25 23:24:13;;;;;;;;;;;2.00;99.90;;;;;;8383884;28;19932;-71
2023/11/25 23:28:16;;;;;;;;;;;2.10;99.90;;;;;;8391696;28;19947;-72
2023/11/25 23:32:18;;;;;;;;;;;2.00;99.90;;;;;;8387590;28;19928;-71
2023/11/25 23:36:21;;;;;;;;;;;2.00;99.90;;;;;;8383323;28;20330;-71
2023/11/25 23:40:23;;;;;;;;;;;2.00;99.90;;;;;;8377354;28;19947;-71
2023/11/25 23:44:24;;;;;;;;;;;2.00;99.90;;;;;;8382121;28;19925;-72
2023/11/25 23:48:27;;;;;;;;;;;2.00;99.90;;;;;;8392548;28;19990;-71